sensor_id;sensor_type;location;lat;lon;timestamp;P1;durP1;ratioP1;P2;durP2;ratioP2
44440;SDS011;30146;52.268;20.944;2023-07-16T00:00:30;9.00;;;5.30;;
44440;SDS011;30146;52.268;20.944;2023-07-16T00:03:02;10.40;;;5.10;;
44440;SDS011;30146;52.268;20.944;2023-07-16T00:05:34;10.60;;;5.50;;
44440;SDS011;30146;52.268;20.944;2023-07-16T00:08:07;6.90;;;5.00;;
44440;SDS011;30146;52.268;20.944;2023-07-16T00:10:38;8.40;;;5.10;;
44440;SDS011;30146;52.268;20.944;2023-07-16T00:13:10;5.80;;;4.70;;
44440;SDS011;30146;52.268;20.944;2023-07-16T00:15:41;9.80;;;5.20;;
44440;SDS011;30146;52.268;20.944;2023-07-16T00:18:13;6.70;;;5.30;;
44440;SDS011;30146;52.268;20.944;2023-07-16T00:20:44;8.40;;;5.60;;
44440;SDS011;30146;52.268;20.944;2023-07-16T00:23:15;6.90;;;5.80;;
44440;SDS011;30146;52.268;20.944;2023-07-16T00:25:46;7.70;;;5.20;;
44440;SDS011;30146;52.268;20.944;2023-07-16T00:28:17;6.40;;;5.20;;
44440;SDS011;30146;52.268;20.944;2023-07-16T00:30:48;8.40;;;5.50;;
44440;SDS011;30146;52.268;20.944;2023-07-16T00:33:20;6.40;;;5.10;;
44440;SDS011;30146;52.268;20.944;2023-07-16T00:35:51;9.50;;;5.20;;
44440;SDS011;30146;52.268;20.944;2023-07-16T00:38:22;7.90;;;6.00;;
44440;SDS011;30146;52.268;20.944;2023-07-16T00:40:53;8.20;;;5.30;;
44440;SDS011;30146;52.268;20.944;2023-07-16T00:43:24;5.90;;;5.20;;
44440;SDS011;30146;52.268;20.944;2023-07-16T00:45:55;9.80;;;5.40;;
44440;SDS011;30146;52.268;20.944;2023-07-16T00:48:27;8.30;;;5.30;;
44440;SDS011;30146;52.268;20.944;2023-07-16T00:51:01;10.70;;;6.30;;
44440;SDS011;30146;52.268;20.944;2023-07-16T00:53:33;9.20;;;5.60;;
44440;SDS011;30146;52.268;20.944;2023-07-16T00:56:04;11.20;;;5.60;;
44440;SDS011;30146;52.268;20.944;2023-07-16T00:58:36;9.30;;;5.30;;
44440;SDS011;30146;52.268;20.944;2023-07-16T01:01:08;6.20;;;5.50;;
44440;SDS011;30146;52.268;20.944;2023-07-16T01:03:39;7.40;;;5.00;;
44440;SDS011;30146;52.268;20.944;2023-07-16T01:06:13;6.00;;;5.40;;
44440;SDS011;30146;52.268;20.944;2023-07-16T01:08:48;6.70;;;5.10;;
44440;SDS011;30146;52.268;20.944;2023-07-16T01:11:25;15.50;;;5.80;;
44440;SDS011;30146;52.268;20.944;2023-07-16T01:13:58;7.50;;;5.60;;
44440;SDS011;30146;52.268;20.944;2023-07-16T01:16:30;9.20;;;5.70;;
44440;SDS011;30146;52.268;20.944;2023-07-16T01:19:01;9.30;;;5.90;;
44440;SDS011;30146;52.268;20.944;2023-07-16T01:21:34;11.80;;;5.90;;
44440;SDS011;30146;52.268;20.944;2023-07-16T01:24:17;9.70;;;5.30;;
44440;SDS011;30146;52.268;20.944;2023-07-16T01:27:14;11.50;;;5.90;;
44440;SDS011;30146;52.268;20.944;2023-07-16T01:30:06;7.00;;;5.50;;
44440;SDS011;30146;52.268;20.944;2023-07-16T01:32:40;10.00;;;5.40;;
44440;SDS011;30146;52.268;20.944;2023-07-16T01:35:14;8.40;;;5.30;;
44440;SDS011;30146;52.268;20.944;2023-07-16T01:37:46;8.60;;;5.60;;
44440;SDS011;30146;52.268;20.944;2023-07-16T01:40:17;8.30;;;6.00;;
44440;SDS011;30146;52.268;20.944;2023-07-16T01:42:48;7.70;;;5.70;;
44440;SDS011;30146;52.268;20.944;2023-07-16T01:45:20;7.10;;;5.90;;
44440;SDS011;30146;52.268;20.944;2023-07-16T01:47:54;10.90;;;6.30;;
44440;SDS011;30146;52.268;20.944;2023-07-16T01:50:35;11.30;;;5.80;;
44440;SDS011;30146;52.268;20.944;2023-07-16T01:53:06;12.40;;;7.20;;
44440;SDS011;30146;52.268;20.944;2023-07-16T01:55:38;10.50;;;6.30;;
44440;SDS011;30146;52.268;20.944;2023-07-16T01:58:09;7.40;;;5.60;;
44440;SDS011;30146;52.268;20.944;2023-07-16T02:00:40;7.00;;;5.60;;
44440;SDS011;30146;52.268;20.944;2023-07-16T02:03:11;7.20;;;5.60;;
44440;SDS011;30146;52.268;20.944;2023-07-16T02:05:42;7.70;;;5.90;;
44440;SDS011;30146;52.268;20.944;2023-07-16T02:08:14;8.70;;;5.70;;
44440;SDS011;30146;52.268;20.944;2023-07-16T02:10:46;11.20;;;6.10;;
44440;SDS011;30146;52.268;20.944;2023-07-16T02:13:18;8.30;;;5.70;;
44440;SDS011;30146;52.268;20.944;2023-07-16T02:15:49;13.30;;;6.50;;
44440;SDS011;30146;52.268;20.944;2023-07-16T02:18:20;8.00;;;6.00;;
44440;SDS011;30146;52.268;20.944;2023-07-16T02:20:51;6.90;;;5.60;;
44440;SDS011;30146;52.268;20.944;2023-07-16T02:23:22;10.80;;;6.00;;
44440;SDS011;30146;52.268;20.944;2023-07-16T02:25:54;7.50;;;5.90;;
44440;SDS011;30146;52.268;20.944;2023-07-16T02:28:25;7.30;;;6.10;;
44440;SDS011;30146;52.268;20.944;2023-07-16T02:30:56;8.90;;;6.30;;
44440;SDS011;30146;52.268;20.944;2023-07-16T02:33:28;13.90;;;7.90;;
44440;SDS011;30146;52.268;20.944;2023-07-16T02:36:00;7.30;;;6.40;;
44440;SDS011;30146;52.268;20.944;2023-07-16T02:38:31;8.00;;;7.00;;
44440;SDS011;30146;52.268;20.944;2023-07-16T02:41:02;12.40;;;7.00;;
44440;SDS011;30146;52.268;20.944;2023-07-16T02:43:33;8.70;;;6.80;;
44440;SDS011;30146;52.268;20.944;2023-07-16T02:46:04;10.70;;;6.80;;
44440;SDS011;30146;52.268;20.944;2023-07-16T02:48:35;9.50;;;7.40;;
44440;SDS011;30146;52.268;20.944;2023-07-16T02:51:07;10.10;;;7.30;;
44440;SDS011;30146;52.268;20.944;2023-07-16T02:53:38;9.40;;;7.20;;
44440;SDS011;30146;52.268;20.944;2023-07-16T02:56:09;9.90;;;7.00;;
44440;SDS011;30146;52.268;20.944;2023-07-16T02:58:41;8.90;;;6.80;;
44440;SDS011;30146;52.268;20.944;2023-07-16T03:01:12;9.10;;;6.70;;
44440;SDS011;30146;52.268;20.944;2023-07-16T03:03:43;11.60;;;7.20;;
44440;SDS011;30146;52.268;20.944;2023-07-16T03:06:15;15.20;;;7.30;;
44440;SDS011;30146;52.268;20.944;2023-07-16T03:08:51;12.40;;;7.40;;
44440;SDS011;30146;52.268;20.944;2023-07-16T03:11:22;10.60;;;6.90;;
44440;SDS011;30146;52.268;20.944;2023-07-16T03:13:55;8.50;;;6.50;;
44440;SDS011;30146;52.268;20.944;2023-07-16T03:16:26;10.50;;;8.10;;
44440;SDS011;30146;52.268;20.944;2023-07-16T03:18:57;9.90;;;6.70;;
44440;SDS011;30146;52.268;20.944;2023-07-16T03:21:30;14.20;;;7.30;;
44440;SDS011;30146;52.268;20.944;2023-07-16T03:24:02;14.40;;;7.30;;
44440;SDS011;30146;52.268;20.944;2023-07-16T03:26:34;11.30;;;7.30;;
44440;SDS011;30146;52.268;20.944;2023-07-16T03:29:05;12.30;;;10.10;;
44440;SDS011;30146;52.268;20.944;2023-07-16T03:31:36;18.20;;;9.70;;
44440;SDS011;30146;52.268;20.944;2023-07-16T03:34:09;10.50;;;7.50;;
44440;SDS011;30146;52.268;20.944;2023-07-16T03:36:40;9.70;;;6.80;;
44440;SDS011;30146;52.268;20.944;2023-07-16T03:39:11;8.10;;;7.30;;
44440;SDS011;30146;52.268;20.944;2023-07-16T03:41:42;9.20;;;6.70;;
44440;SDS011;30146;52.268;20.944;2023-07-16T03:44:14;15.30;;;8.50;;
44440;SDS011;30146;52.268;20.944;2023-07-16T03:46:46;11.40;;;7.60;;
44440;SDS011;30146;52.268;20.944;2023-07-16T03:49:17;14.90;;;7.00;;
44440;SDS011;30146;52.268;20.944;2023-07-16T03:51:48;13.20;;;6.90;;
44440;SDS011;30146;52.268;20.944;2023-07-16T03:54:19;9.90;;;7.00;;
44440;SDS011;30146;52.268;20.944;2023-07-16T03:56:50;10.20;;;6.90;;
44440;SDS011;30146;52.268;20.944;2023-07-16T03:59:21;8.80;;;6.90;;
44440;SDS011;30146;52.268;20.944;2023-07-16T04:01:52;10.10;;;7.50;;
44440;SDS011;30146;52.268;20.944;2023-07-16T04:04:24;11.40;;;7.30;;
44440;SDS011;30146;52.268;20.944;2023-07-16T04:06:55;7.30;;;6.40;;
44440;SDS011;30146;52.268;20.944;2023-07-16T04:09:26;10.80;;;7.20;;
44440;SDS011;30146;52.268;20.944;2023-07-16T04:11:57;9.80;;;7.00;;
44440;SDS011;30146;52.268;20.944;2023-07-16T04:14:28;12.30;;;7.10;;
44440;SDS011;30146;52.268;20.944;2023-07-16T04:16:59;7.80;;;6.90;;
44440;SDS011;30146;52.268;20.944;2023-07-16T04:19:30;8.10;;;7.30;;
44440;SDS011;30146;52.268;20.944;2023-07-16T04:22:02;10.20;;;7.60;;
44440;SDS011;30146;52.268;20.944;2023-07-16T04:27:05;16.10;;;7.60;;
44440;SDS011;30146;52.268;20.944;2023-07-16T04:29:36;11.40;;;7.80;;
44440;SDS011;30146;52.268;20.944;2023-07-16T04:32:07;18.40;;;7.70;;
44440;SDS011;30146;52.268;20.944;2023-07-16T04:34:38;12.50;;;7.30;;
44440;SDS011;30146;52.268;20.944;2023-07-16T04:37:09;10.50;;;7.00;;
44440;SDS011;30146;52.268;20.944;2023-07-16T04:39:41;10.90;;;7.50;;
44440;SDS011;30146;52.268;20.944;2023-07-16T04:42:12;10.00;;;6.60;;
44440;SDS011;30146;52.268;20.944;2023-07-16T04:44:45;15.10;;;7.30;;
44440;SDS011;30146;52.268;20.944;2023-07-16T04:47:16;11.60;;;7.40;;
44440;SDS011;30146;52.268;20.944;2023-07-16T04:49:47;12.00;;;6.90;;
44440;SDS011;30146;52.268;20.944;2023-07-16T04:52:18;12.00;;;6.90;;
44440;SDS011;30146;52.268;20.944;2023-07-16T04:54:49;9.30;;;5.80;;
44440;SDS011;30146;52.268;20.944;2023-07-16T04:57:20;10.50;;;6.50;;
44440;SDS011;30146;52.268;20.944;2023-07-16T04:59:51;8.30;;;6.20;;
44440;SDS011;30146;52.268;20.944;2023-07-16T05:02:22;10.90;;;6.70;;
44440;SDS011;30146;52.268;20.944;2023-07-16T05:04:53;10.10;;;6.20;;
44440;SDS011;30146;52.268;20.944;2023-07-16T05:07:25;13.30;;;6.70;;
44440;SDS011;30146;52.268;20.944;2023-07-16T05:09:56;9.00;;;5.90;;
44440;SDS011;30146;52.268;20.944;2023-07-16T05:12:27;8.80;;;6.50;;
44440;SDS011;30146;52.268;20.944;2023-07-16T05:14:58;10.50;;;6.40;;
44440;SDS011;30146;52.268;20.944;2023-07-16T05:17:29;12.60;;;6.30;;
44440;SDS011;30146;52.268;20.944;2023-07-16T05:20:01;14.40;;;5.80;;
44440;SDS011;30146;52.268;20.944;2023-07-16T05:22:33;8.50;;;5.80;;
44440;SDS011;30146;52.268;20.944;2023-07-16T05:25:05;9.60;;;5.90;;
44440;SDS011;30146;52.268;20.944;2023-07-16T05:27:37;7.00;;;5.60;;
44440;SDS011;30146;52.268;20.944;2023-07-16T05:30:09;12.10;;;6.10;;
44440;SDS011;30146;52.268;20.944;2023-07-16T05:32:41;9.50;;;5.80;;
44440;SDS011;30146;52.268;20.944;2023-07-16T05:35:12;8.00;;;6.30;;
44440;SDS011;30146;52.268;20.944;2023-07-16T05:37:44;10.60;;;5.80;;
44440;SDS011;30146;52.268;20.944;2023-07-16T05:40:15;7.20;;;6.10;;
44440;SDS011;30146;52.268;20.944;2023-07-16T05:42:46;10.80;;;7.70;;
44440;SDS011;30146;52.268;20.944;2023-07-16T05:45:17;8.00;;;5.60;;
44440;SDS011;30146;52.268;20.944;2023-07-16T05:47:48;10.50;;;5.40;;
44440;SDS011;30146;52.268;20.944;2023-07-16T05:50:19;7.60;;;5.70;;
44440;SDS011;30146;52.268;20.944;2023-07-16T05:52:50;7.50;;;5.30;;
44440;SDS011;30146;52.268;20.944;2023-07-16T05:55:21;9.50;;;5.50;;
44440;SDS011;30146;52.268;20.944;2023-07-16T05:57:53;6.20;;;5.20;;
44440;SDS011;30146;52.268;20.944;2023-07-16T06:00:24;7.60;;;5.10;;
44440;SDS011;30146;52.268;20.944;2023-07-16T06:02:55;7.60;;;5.20;;
44440;SDS011;30146;52.268;20.944;2023-07-16T06:05:26;10.20;;;5.30;;
44440;SDS011;30146;52.268;20.944;2023-07-16T06:08:00;9.00;;;5.20;;
44440;SDS011;30146;52.268;20.944;2023-07-16T06:10:33;6.90;;;5.20;;
44440;SDS011;30146;52.268;20.944;2023-07-16T06:13:04;8.90;;;4.70;;
44440;SDS011;30146;52.268;20.944;2023-07-16T06:15:35;7.90;;;5.30;;
44440;SDS011;30146;52.268;20.944;2023-07-16T06:18:07;10.60;;;4.60;;
44440;SDS011;30146;52.268;20.944;2023-07-16T06:20:38;7.40;;;5.00;;
44440;SDS011;30146;52.268;20.944;2023-07-16T06:25:41;8.90;;;5.60;;
44440;SDS011;30146;52.268;20.944;2023-07-16T06:28:13;8.40;;;4.70;;
44440;SDS011;30146;52.268;20.944;2023-07-16T06:30:44;7.40;;;5.50;;
44440;SDS011;30146;52.268;20.944;2023-07-16T06:33:15;7.60;;;5.00;;
44440;SDS011;30146;52.268;20.944;2023-07-16T06:35:47;7.40;;;5.10;;
44440;SDS011;30146;52.268;20.944;2023-07-16T06:38:18;11.60;;;5.50;;
44440;SDS011;30146;52.268;20.944;2023-07-16T06:40:49;11.50;;;5.50;;
44440;SDS011;30146;52.268;20.944;2023-07-16T06:43:21;7.50;;;5.30;;
44440;SDS011;30146;52.268;20.944;2023-07-16T06:45:52;10.20;;;5.10;;
44440;SDS011;30146;52.268;20.944;2023-07-16T06:48:23;6.30;;;4.80;;
44440;SDS011;30146;52.268;20.944;2023-07-16T06:50:54;8.10;;;5.00;;
44440;SDS011;30146;52.268;20.944;2023-07-16T06:53:25;9.90;;;4.60;;
44440;SDS011;30146;52.268;20.944;2023-07-16T06:55:56;11.80;;;5.10;;
44440;SDS011;30146;52.268;20.944;2023-07-16T06:58:32;7.00;;;4.60;;
44440;SDS011;30146;52.268;20.944;2023-07-16T07:01:03;7.10;;;5.10;;
44440;SDS011;30146;52.268;20.944;2023-07-16T07:03:34;8.20;;;5.50;;
44440;SDS011;30146;52.268;20.944;2023-07-16T07:06:05;7.60;;;4.90;;
44440;SDS011;30146;52.268;20.944;2023-07-16T07:08:38;7.50;;;5.60;;
44440;SDS011;30146;52.268;20.944;2023-07-16T07:11:09;9.50;;;5.70;;
44440;SDS011;30146;52.268;20.944;2023-07-16T07:13:40;5.50;;;5.00;;
44440;SDS011;30146;52.268;20.944;2023-07-16T07:16:12;6.80;;;5.80;;
44440;SDS011;30146;52.268;20.944;2023-07-16T07:18:43;11.00;;;5.80;;
44440;SDS011;30146;52.268;20.944;2023-07-16T07:21:14;6.80;;;5.70;;
44440;SDS011;30146;52.268;20.944;2023-07-16T07:23:45;6.50;;;5.80;;
44440;SDS011;30146;52.268;20.944;2023-07-16T07:26:16;10.20;;;6.20;;
44440;SDS011;30146;52.268;20.944;2023-07-16T07:28:47;12.90;;;5.50;;
44440;SDS011;30146;52.268;20.944;2023-07-16T07:31:18;13.90;;;5.90;;
44440;SDS011;30146;52.268;20.944;2023-07-16T07:33:49;8.90;;;5.70;;
44440;SDS011;30146;52.268;20.944;2023-07-16T07:36:21;8.30;;;5.60;;
44440;SDS011;30146;52.268;20.944;2023-07-16T07:38:52;9.50;;;6.10;;
44440;SDS011;30146;52.268;20.944;2023-07-16T07:41:23;6.90;;;5.30;;
44440;SDS011;30146;52.268;20.944;2023-07-16T07:43:54;8.30;;;5.40;;
44440;SDS011;30146;52.268;20.944;2023-07-16T07:46:25;9.70;;;5.80;;
44440;SDS011;30146;52.268;20.944;2023-07-16T07:48:56;8.00;;;5.40;;
44440;SDS011;30146;52.268;20.944;2023-07-16T07:51:27;9.10;;;5.10;;
44440;SDS011;30146;52.268;20.944;2023-07-16T07:53:58;8.60;;;5.60;;
44440;SDS011;30146;52.268;20.944;2023-07-16T07:56:29;6.80;;;5.80;;
44440;SDS011;30146;52.268;20.944;2023-07-16T07:59:00;15.40;;;6.20;;
44440;SDS011;30146;52.268;20.944;2023-07-16T08:01:31;14.30;;;9.80;;
44440;SDS011;30146;52.268;20.944;2023-07-16T08:04:04;12.30;;;5.20;;
44440;SDS011;30146;52.268;20.944;2023-07-16T08:06:35;8.00;;;5.20;;
44440;SDS011;30146;52.268;20.944;2023-07-16T08:09:06;7.80;;;5.30;;
44440;SDS011;30146;52.268;20.944;2023-07-16T08:11:38;6.20;;;5.50;;
44440;SDS011;30146;52.268;20.944;2023-07-16T08:14:09;7.80;;;5.10;;
44440;SDS011;30146;52.268;20.944;2023-07-16T08:16:40;6.90;;;5.10;;
44440;SDS011;30146;52.268;20.944;2023-07-16T08:19:10;8.60;;;5.40;;
44440;SDS011;30146;52.268;20.944;2023-07-16T08:21:43;8.00;;;6.30;;
44440;SDS011;30146;52.268;20.944;2023-07-16T08:24:14;8.80;;;5.50;;
44440;SDS011;30146;52.268;20.944;2023-07-16T08:26:45;6.20;;;4.70;;
44440;SDS011;30146;52.268;20.944;2023-07-16T08:29:16;5.90;;;5.10;;
44440;SDS011;30146;52.268;20.944;2023-07-16T08:31:47;5.00;;;4.50;;
44440;SDS011;30146;52.268;20.944;2023-07-16T08:34:18;13.00;;;4.80;;
44440;SDS011;30146;52.268;20.944;2023-07-16T08:36:49;7.20;;;4.80;;
44440;SDS011;30146;52.268;20.944;2023-07-16T08:48:38;8.90;;;3.50;;
44440;SDS011;30146;52.268;20.944;2023-07-16T08:51:10;5.70;;;4.40;;
44440;SDS011;30146;52.268;20.944;2023-07-16T08:53:43;7.80;;;4.00;;
44440;SDS011;30146;52.268;20.944;2023-07-16T08:56:15;7.00;;;4.50;;
44440;SDS011;30146;52.268;20.944;2023-07-16T08:58:47;7.40;;;4.70;;
44440;SDS011;30146;52.268;20.944;2023-07-16T09:01:18;4.80;;;4.00;;
44440;SDS011;30146;52.268;20.944;2023-07-16T09:03:51;7.90;;;4.40;;
44440;SDS011;30146;52.268;20.944;2023-07-16T09:06:22;6.10;;;4.30;;
44440;SDS011;30146;52.268;20.944;2023-07-16T09:08:53;9.60;;;4.50;;
44440;SDS011;30146;52.268;20.944;2023-07-16T09:11:25;8.00;;;4.50;;
44440;SDS011;30146;52.268;20.944;2023-07-16T09:13:56;8.80;;;5.10;;
44440;SDS011;30146;52.268;20.944;2023-07-16T09:16:33;9.40;;;4.90;;
44440;SDS011;30146;52.268;20.944;2023-07-16T09:19:09;8.50;;;4.50;;
44440;SDS011;30146;52.268;20.944;2023-07-16T09:21:45;5.00;;;4.40;;
44440;SDS011;30146;52.268;20.944;2023-07-16T09:24:17;6.10;;;4.30;;
44440;SDS011;30146;52.268;20.944;2023-07-16T09:26:49;10.60;;;4.60;;
44440;SDS011;30146;52.268;20.944;2023-07-16T09:29:21;7.70;;;4.80;;
44440;SDS011;30146;52.268;20.944;2023-07-16T09:31:54;8.00;;;4.90;;
44440;SDS011;30146;52.268;20.944;2023-07-16T09:34:28;6.20;;;4.70;;
44440;SDS011;30146;52.268;20.944;2023-07-16T09:37:00;8.00;;;4.70;;
44440;SDS011;30146;52.268;20.944;2023-07-16T09:39:35;11.10;;;4.80;;
44440;SDS011;30146;52.268;20.944;2023-07-16T09:42:06;7.60;;;4.40;;
44440;SDS011;30146;52.268;20.944;2023-07-16T09:44:38;8.30;;;4.10;;
44440;SDS011;30146;52.268;20.944;2023-07-16T09:47:10;14.50;;;5.40;;
44440;SDS011;30146;52.268;20.944;2023-07-16T09:49:42;8.20;;;5.40;;
44440;SDS011;30146;52.268;20.944;2023-07-16T09:52:13;9.70;;;4.80;;
44440;SDS011;30146;52.268;20.944;2023-07-16T09:54:45;6.70;;;4.60;;
44440;SDS011;30146;52.268;20.944;2023-07-16T09:57:19;8.00;;;4.90;;
44440;SDS011;30146;52.268;20.944;2023-07-16T09:59:51;5.90;;;4.50;;
44440;SDS011;30146;52.268;20.944;2023-07-16T10:02:25;5.90;;;4.20;;
44440;SDS011;30146;52.268;20.944;2023-07-16T10:04:57;9.60;;;4.70;;
44440;SDS011;30146;52.268;20.944;2023-07-16T10:07:28;6.50;;;4.40;;
44440;SDS011;30146;52.268;20.944;2023-07-16T10:10:01;9.70;;;4.40;;
44440;SDS011;30146;52.268;20.944;2023-07-16T10:12:40;6.00;;;4.20;;
44440;SDS011;30146;52.268;20.944;2023-07-16T10:15:13;8.40;;;4.50;;
44440;SDS011;30146;52.268;20.944;2023-07-16T10:17:54;6.20;;;5.20;;
44440;SDS011;30146;52.268;20.944;2023-07-16T10:20:29;19.60;;;4.90;;
44440;SDS011;30146;52.268;20.944;2023-07-16T10:23:11;11.10;;;5.00;;
44440;SDS011;30146;52.268;20.944;2023-07-16T10:28:29;18.30;;;5.50;;
44440;SDS011;30146;52.268;20.944;2023-07-16T10:31:00;10.10;;;5.90;;
44440;SDS011;30146;52.268;20.944;2023-07-16T10:33:31;7.50;;;5.90;;
44440;SDS011;30146;52.268;20.944;2023-07-16T10:36:05;13.10;;;5.70;;
44440;SDS011;30146;52.268;20.944;2023-07-16T10:38:41;9.80;;;5.70;;
44440;SDS011;30146;52.268;20.944;2023-07-16T10:41:12;9.80;;;5.60;;
44440;SDS011;30146;52.268;20.944;2023-07-16T10:43:43;5.80;;;5.20;;
44440;SDS011;30146;52.268;20.944;2023-07-16T10:46:15;8.40;;;5.30;;
44440;SDS011;30146;52.268;20.944;2023-07-16T10:48:47;10.60;;;5.60;;
44440;SDS011;30146;52.268;20.944;2023-07-16T10:51:24;10.00;;;5.50;;
44440;SDS011;30146;52.268;20.944;2023-07-16T10:53:56;7.30;;;5.80;;
44440;SDS011;30146;52.268;20.944;2023-07-16T10:56:27;9.30;;;5.70;;
44440;SDS011;30146;52.268;20.944;2023-07-16T10:58:58;11.50;;;5.00;;
44440;SDS011;30146;52.268;20.944;2023-07-16T11:01:32;7.90;;;5.40;;
44440;SDS011;30146;52.268;20.944;2023-07-16T11:04:08;7.30;;;5.30;;
44440;SDS011;30146;52.268;20.944;2023-07-16T11:06:39;9.00;;;5.10;;
44440;SDS011;30146;52.268;20.944;2023-07-16T11:09:10;7.50;;;5.30;;
44440;SDS011;30146;52.268;20.944;2023-07-16T11:11:44;10.60;;;6.10;;
44440;SDS011;30146;52.268;20.944;2023-07-16T11:14:15;15.60;;;6.10;;
44440;SDS011;30146;52.268;20.944;2023-07-16T11:16:46;10.20;;;5.80;;
44440;SDS011;30146;52.268;20.944;2023-07-16T11:19:19;9.00;;;5.20;;
44440;SDS011;30146;52.268;20.944;2023-07-16T11:21:51;9.80;;;5.30;;
44440;SDS011;30146;52.268;20.944;2023-07-16T11:24:23;9.50;;;5.60;;
44440;SDS011;30146;52.268;20.944;2023-07-16T11:26:55;9.80;;;5.90;;
44440;SDS011;30146;52.268;20.944;2023-07-16T11:29:26;7.30;;;5.50;;
44440;SDS011;30146;52.268;20.944;2023-07-16T11:32:06;9.60;;;5.60;;
44440;SDS011;30146;52.268;20.944;2023-07-16T11:34:50;9.20;;;5.60;;
44440;SDS011;30146;52.268;20.944;2023-07-16T11:39:56;9.50;;;5.30;;
44440;SDS011;30146;52.268;20.944;2023-07-16T11:42:34;14.60;;;6.00;;
44440;SDS011;30146;52.268;20.944;2023-07-16T11:45:14;12.30;;;6.00;;
44440;SDS011;30146;52.268;20.944;2023-07-16T11:47:47;6.70;;;6.00;;
44440;SDS011;30146;52.268;20.944;2023-07-16T11:50:18;8.10;;;5.60;;
44440;SDS011;30146;52.268;20.944;2023-07-16T11:52:53;7.50;;;5.10;;
44440;SDS011;30146;52.268;20.944;2023-07-16T11:55:25;7.80;;;5.40;;
44440;SDS011;30146;52.268;20.944;2023-07-16T11:57:56;13.20;;;5.70;;
44440;SDS011;30146;52.268;20.944;2023-07-16T12:00:28;11.60;;;5.40;;
44440;SDS011;30146;52.268;20.944;2023-07-16T12:02:59;10.00;;;5.70;;
44440;SDS011;30146;52.268;20.944;2023-07-16T12:05:30;6.40;;;5.40;;
44440;SDS011;30146;52.268;20.944;2023-07-16T12:08:20;8.00;;;5.20;;
44440;SDS011;30146;52.268;20.944;2023-07-16T12:10:51;7.90;;;5.10;;
44440;SDS011;30146;52.268;20.944;2023-07-16T12:13:22;11.80;;;5.40;;
44440;SDS011;30146;52.268;20.944;2023-07-16T12:15:55;10.40;;;4.90;;
44440;SDS011;30146;52.268;20.944;2023-07-16T12:18:31;5.80;;;5.30;;
44440;SDS011;30146;52.268;20.944;2023-07-16T12:23:35;11.90;;;4.60;;
44440;SDS011;30146;52.268;20.944;2023-07-16T12:26:06;7.40;;;5.00;;
44440;SDS011;30146;52.268;20.944;2023-07-16T12:28:38;9.50;;;4.80;;
44440;SDS011;30146;52.268;20.944;2023-07-16T12:31:10;8.40;;;4.80;;
44440;SDS011;30146;52.268;20.944;2023-07-16T12:33:43;5.00;;;4.30;;
44440;SDS011;30146;52.268;20.944;2023-07-16T12:36:15;8.00;;;4.70;;
44440;SDS011;30146;52.268;20.944;2023-07-16T12:38:46;10.50;;;4.50;;
44440;SDS011;30146;52.268;20.944;2023-07-16T12:41:18;5.90;;;4.40;;
44440;SDS011;30146;52.268;20.944;2023-07-16T12:43:51;5.10;;;4.30;;
44440;SDS011;30146;52.268;20.944;2023-07-16T12:46:22;7.60;;;4.20;;
44440;SDS011;30146;52.268;20.944;2023-07-16T12:48:54;11.40;;;4.80;;
44440;SDS011;30146;52.268;20.944;2023-07-16T12:51:25;6.80;;;4.50;;
44440;SDS011;30146;52.268;20.944;2023-07-16T12:53:56;7.80;;;4.70;;
44440;SDS011;30146;52.268;20.944;2023-07-16T12:56:29;8.00;;;4.20;;
44440;SDS011;30146;52.268;20.944;2023-07-16T12:59:01;7.80;;;4.30;;
44440;SDS011;30146;52.268;20.944;2023-07-16T13:01:32;8.50;;;4.30;;
44440;SDS011;30146;52.268;20.944;2023-07-16T13:04:03;6.50;;;4.20;;
44440;SDS011;30146;52.268;20.944;2023-07-16T13:06:35;6.70;;;4.40;;
44440;SDS011;30146;52.268;20.944;2023-07-16T13:09:06;6.00;;;3.90;;
44440;SDS011;30146;52.268;20.944;2023-07-16T13:11:38;5.20;;;4.20;;
44440;SDS011;30146;52.268;20.944;2023-07-16T13:14:10;6.20;;;4.00;;
44440;SDS011;30146;52.268;20.944;2023-07-16T13:16:41;5.20;;;4.10;;
44440;SDS011;30146;52.268;20.944;2023-07-16T13:19:12;4.20;;;3.70;;
44440;SDS011;30146;52.268;20.944;2023-07-16T13:21:45;5.60;;;3.70;;
44440;SDS011;30146;52.268;20.944;2023-07-16T13:24:16;9.00;;;4.30;;
44440;SDS011;30146;52.268;20.944;2023-07-16T13:26:48;5.10;;;3.90;;
44440;SDS011;30146;52.268;20.944;2023-07-16T13:29:19;5.30;;;4.00;;
44440;SDS011;30146;52.268;20.944;2023-07-16T13:31:50;10.70;;;4.30;;
44440;SDS011;30146;52.268;20.944;2023-07-16T13:34:21;9.90;;;4.20;;
44440;SDS011;30146;52.268;20.944;2023-07-16T13:36:52;7.00;;;4.20;;
44440;SDS011;30146;52.268;20.944;2023-07-16T13:39:23;8.60;;;3.90;;
44440;SDS011;30146;52.268;20.944;2023-07-16T13:41:55;7.50;;;3.70;;
44440;SDS011;30146;52.268;20.944;2023-07-16T13:44:46;6.10;;;3.60;;
44440;SDS011;30146;52.268;20.944;2023-07-16T13:47:17;10.40;;;3.50;;
44440;SDS011;30146;52.268;20.944;2023-07-16T13:49:49;5.40;;;3.60;;
44440;SDS011;30146;52.268;20.944;2023-07-16T13:52:20;7.70;;;3.90;;
44440;SDS011;30146;52.268;20.944;2023-07-16T13:54:51;4.50;;;4.00;;
44440;SDS011;30146;52.268;20.944;2023-07-16T13:57:22;8.90;;;7.00;;
44440;SDS011;30146;52.268;20.944;2023-07-16T13:59:53;11.40;;;8.50;;
44440;SDS011;30146;52.268;20.944;2023-07-16T14:02:24;8.50;;;4.40;;
44440;SDS011;30146;52.268;20.944;2023-07-16T14:04:55;6.70;;;4.40;;
44440;SDS011;30146;52.268;20.944;2023-07-16T14:07:26;3.90;;;3.40;;
44440;SDS011;30146;52.268;20.944;2023-07-16T14:09:57;10.40;;;3.60;;
44440;SDS011;30146;52.268;20.944;2023-07-16T14:12:28;6.20;;;3.70;;
44440;SDS011;30146;52.268;20.944;2023-07-16T14:14:59;5.60;;;3.60;;
44440;SDS011;30146;52.268;20.944;2023-07-16T14:17:30;9.30;;;3.70;;
44440;SDS011;30146;52.268;20.944;2023-07-16T14:20:01;5.20;;;3.60;;
44440;SDS011;30146;52.268;20.944;2023-07-16T14:22:34;3.60;;;3.10;;
44440;SDS011;30146;52.268;20.944;2023-07-16T14:25:06;6.30;;;3.10;;
44440;SDS011;30146;52.268;20.944;2023-07-16T14:27:37;7.00;;;3.60;;
44440;SDS011;30146;52.268;20.944;2023-07-16T14:30:09;3.10;;;2.80;;
44440;SDS011;30146;52.268;20.944;2023-07-16T14:32:40;6.20;;;3.20;;
44440;SDS011;30146;52.268;20.944;2023-07-16T14:35:12;3.70;;;3.40;;
44440;SDS011;30146;52.268;20.944;2023-07-16T14:37:48;6.30;;;3.20;;
44440;SDS011;30146;52.268;20.944;2023-07-16T14:40:19;4.30;;;3.10;;
44440;SDS011;30146;52.268;20.944;2023-07-16T14:42:50;3.80;;;3.10;;
44440;SDS011;30146;52.268;20.944;2023-07-16T14:45:21;8.20;;;3.10;;
44440;SDS011;30146;52.268;20.944;2023-07-16T14:47:53;6.90;;;2.80;;
44440;SDS011;30146;52.268;20.944;2023-07-16T14:50:24;3.70;;;2.80;;
44440;SDS011;30146;52.268;20.944;2023-07-16T14:52:55;8.10;;;3.10;;
44440;SDS011;30146;52.268;20.944;2023-07-16T14:55:26;3.80;;;2.70;;
44440;SDS011;30146;52.268;20.944;2023-07-16T14:57:57;3.00;;;2.70;;
44440;SDS011;30146;52.268;20.944;2023-07-16T15:00:30;8.00;;;2.70;;
44440;SDS011;30146;52.268;20.944;2023-07-16T15:03:01;3.50;;;2.60;;
44440;SDS011;30146;52.268;20.944;2023-07-16T15:05:34;8.40;;;2.80;;
44440;SDS011;30146;52.268;20.944;2023-07-16T15:08:05;5.90;;;2.80;;
44440;SDS011;30146;52.268;20.944;2023-07-16T15:10:36;4.30;;;2.40;;
44440;SDS011;30146;52.268;20.944;2023-07-16T15:13:07;4.90;;;2.60;;
44440;SDS011;30146;52.268;20.944;2023-07-16T15:15:39;6.90;;;2.50;;
44440;SDS011;30146;52.268;20.944;2023-07-16T15:18:16;3.50;;;2.20;;
44440;SDS011;30146;52.268;20.944;2023-07-16T15:20:48;4.90;;;2.20;;